createdAt,value
2019-02-25T00:01:18.452Z,75.03
2019-02-25T00:03:48.197Z,75.13
2019-02-25T00:06:17.932Z,74.97
2019-02-25T00:08:47.645Z,76.20
2019-02-25T00:11:36.579Z,71.03
2019-02-25T00:14:06.271Z,70.50
2019-02-25T00:16:36.023Z,73.83
2019-02-25T00:19:06.301Z,78.40
2019-02-25T00:21:35.997Z,75.70
2019-02-25T00:24:07.090Z,72.83
2019-02-25T00:26:38.245Z,76.27
2019-02-25T00:29:07.994Z,76.47
2019-02-25T00:31:37.745Z,78.13
2019-02-25T00:40:27.938Z,77.37
2019-02-25T00:45:53.808Z,79.87
2019-02-25T00:48:24.333Z,75.27
2019-02-25T00:50:54.076Z,72.67
2019-02-25T00:53:25.309Z,75.00
2019-02-25T00:55:56.446Z,78.40
2019-02-25T00:58:26.097Z,72.17
2019-02-25T01:00:55.807Z,72.47
2019-02-25T01:03:25.458Z,72.23
2019-02-25T01:05:55.131Z,72.83
2019-02-25T01:08:24.872Z,75.57
2019-02-25T01:10:54.529Z,71.03
2019-02-25T01:13:24.204Z,67.77
2019-02-25T01:15:53.895Z,71.73
2019-02-25T01:18:23.553Z,74.33
2019-02-25T01:20:53.310Z,73.40
2019-02-25T01:23:22.987Z,75.47
2019-02-25T01:25:52.665Z,74.43
2019-02-25T01:28:22.318Z,73.80
2019-02-25T01:30:52.008Z,71.37
2019-02-25T01:33:21.687Z,76.57
2019-02-25T01:35:51.429Z,71.73
2019-02-25T01:38:21.106Z,71.17
2019-02-25T01:40:50.768Z,74.43
2019-02-25T01:43:20.493Z,74.07
2019-02-25T01:45:50.250Z,73.43
2019-02-25T01:48:19.898Z,73.53
2019-02-25T01:50:49.771Z,70.83
2019-02-25T01:53:19.452Z,71.83
2019-02-25T01:55:49.105Z,73.97
2019-02-25T01:58:18.777Z,71.67
2019-02-25T02:00:48.455Z,73.43
2019-02-25T02:03:18.125Z,73.07
2019-02-25T02:05:47.786Z,74.33
2019-02-25T02:08:17.458Z,75.67
2019-02-25T02:10:47.120Z,68.03
2019-02-25T02:13:16.871Z,70.30
2019-02-25T02:15:46.551Z,69.77
2019-02-25T02:18:16.553Z,69.40
2019-02-25T02:20:47.583Z,72.53
2019-02-25T02:23:17.263Z,71.93
2019-02-25T02:25:46.992Z,75.23
2019-02-25T02:28:16.671Z,68.47
2019-02-25T02:30:46.442Z,71.40
2019-02-25T02:33:16.094Z,72.20
2019-02-25T02:35:45.753Z,68.97
2019-02-25T02:38:15.440Z,71.33
2019-02-25T02:40:45.119Z,67.33
2019-02-25T02:43:14.767Z,70.63
2019-02-25T02:45:57.819Z,69.27
2019-02-25T02:48:35.940Z,70.60
2019-02-25T02:51:05.649Z,68.43
2019-02-25T02:53:35.309Z,70.50
2019-02-25T02:56:05.077Z,65.23
2019-02-25T02:58:34.753Z,63.23
2019-02-25T03:01:04.509Z,66.57
2019-02-25T03:03:34.155Z,63.57
2019-02-25T03:06:05.104Z,65.77
2019-02-25T03:08:34.766Z,63.87
2019-02-25T03:11:04.412Z,66.30
2019-02-25T03:13:34.087Z,64.27
2019-02-25T03:16:03.751Z,64.17
2019-02-25T03:18:33.343Z,66.17
2019-02-25T03:21:03.032Z,64.97
2019-02-25T03:23:32.693Z,61.10
2019-02-25T03:26:02.361Z,63.73
2019-02-25T03:28:32.049Z,67.80
2019-02-25T03:31:01.697Z,59.90
2019-02-25T03:33:31.366Z,61.57
2019-02-25T03:36:01.034Z,65.63
2019-02-25T03:38:30.714Z,69.43
2019-02-25T03:41:00.386Z,68.47
2019-02-25T03:43:30.059Z,65.03
2019-02-25T03:45:59.723Z,69.63
2019-02-25T03:48:29.404Z,64.30
2019-02-25T03:50:59.084Z,67.80
2019-02-25T03:53:29.648Z,64.87
2019-02-25T03:55:59.400Z,64.07
2019-02-25T03:58:29.086Z,65.50
2019-02-25T04:01:00.574Z,62.20
2019-02-25T04:03:30.242Z,61.27
2019-02-25T04:05:59.928Z,62.23
2019-02-25T04:08:29.568Z,65.27
2019-02-25T04:10:59.225Z,63.03
2019-02-25T04:13:28.914Z,60.17
2019-02-25T04:15:58.575Z,62.47
2019-02-25T04:18:28.239Z,62.60
2019-02-25T04:20:59.089Z,65.17
2019-02-25T04:23:28.766Z,66.00
2019-02-25T04:25:58.418Z,63.47
2019-02-25T04:28:28.091Z,64.67
2019-02-25T04:30:57.740Z,63.47
2019-02-25T04:33:27.421Z,63.83
2019-02-25T04:35:57.093Z,66.53
2019-02-25T04:38:26.742Z,61.00
2019-02-25T04:40:56.397Z,65.23
2019-02-25T04:43:26.098Z,65.90
2019-02-25T04:45:55.786Z,67.53
2019-02-25T04:48:27.105Z,62.07
2019-02-25T04:50:56.757Z,67.37
2019-02-25T04:53:26.420Z,66.43
2019-02-25T04:55:56.116Z,62.77
2019-02-25T04:58:25.773Z,62.03
2019-02-25T05:00:55.439Z,61.23
2019-02-25T05:03:25.131Z,66.57
2019-02-25T05:05:54.847Z,69.43
2019-02-25T05:08:24.509Z,62.27
2019-02-25T05:10:54.187Z,63.43
2019-02-25T05:13:23.918Z,64.90
2019-02-25T05:15:53.773Z,65.23
2019-02-25T05:18:23.591Z,64.73
2019-02-25T05:20:53.311Z,63.77
2019-02-25T05:23:22.984Z,68.23
2019-02-25T05:25:52.669Z,71.67
2019-02-25T05:28:22.403Z,75.53
2019-02-25T05:30:52.074Z,70.57
2019-02-25T05:33:21.771Z,71.87
2019-02-25T05:35:51.463Z,65.57
2019-02-25T05:38:21.138Z,67.60
2019-02-25T05:40:50.824Z,60.53
2019-02-25T05:43:20.484Z,65.83
2019-02-25T05:45:50.521Z,73.50
2019-02-25T05:48:20.284Z,65.73
2019-02-25T05:50:49.952Z,71.70
2019-02-25T05:53:19.908Z,69.07
2019-02-25T05:55:50.037Z,69.13
2019-02-25T05:58:19.691Z,65.70
2019-02-25T06:00:50.239Z,67.53
2019-02-25T06:03:19.925Z,69.07
2019-02-25T06:05:49.583Z,70.93
2019-02-25T06:08:19.248Z,64.23
2019-02-25T06:10:48.934Z,64.57
2019-02-25T06:13:21.429Z,65.60
2019-02-25T06:15:51.482Z,64.50
2019-02-25T06:18:21.357Z,66.80
2019-02-25T06:20:51.000Z,68.20
2019-02-25T06:23:20.663Z,66.27
2019-02-25T06:25:50.428Z,69.00
2019-02-25T06:28:20.080Z,62.70
2019-02-25T06:30:49.743Z,62.93
2019-02-25T06:33:19.425Z,65.33
2019-02-25T06:35:49.086Z,67.83
2019-02-25T06:38:18.754Z,67.37
2019-02-25T06:40:49.130Z,65.50
2019-02-25T06:43:18.790Z,69.50
2019-02-25T06:45:50.662Z,66.50
2019-02-25T06:48:23.134Z,74.00
2019-02-25T06:50:52.779Z,67.27
2019-02-25T06:53:22.435Z,68.60
2019-02-25T06:55:52.104Z,71.33
2019-02-25T06:58:23.075Z,68.90
2019-02-25T07:00:53.007Z,68.30
2019-02-25T07:03:22.696Z,68.97
2019-02-25T07:05:53.983Z,69.80
2019-02-25T07:08:25.278Z,72.23
2019-02-25T07:11:13.753Z,61.67
2019-02-25T07:13:47.764Z,62.37
2019-02-25T07:16:19.055Z,70.57
2019-02-25T07:18:53.374Z,63.77
2019-02-25T07:21:24.688Z,60.77
2019-02-25T07:23:55.995Z,70.83
2019-02-25T07:26:30.224Z,62.07
2019-02-25T07:29:18.009Z,59.73
2019-02-25T07:32:04.586Z,64.50
2019-02-25T07:34:47.974Z,66.17
2019-02-25T07:37:35.706Z,62.70
2019-02-25T07:40:13.492Z,59.93
2019-02-25T07:43:00.100Z,68.27
2019-02-25T07:45:40.403Z,62.93
2019-02-25T07:48:26.732Z,65.47
2019-02-25T07:50:58.036Z,63.27
2019-02-25T07:53:45.473Z,66.50
2019-02-25T07:56:32.822Z,69.07
2019-02-25T07:59:09.919Z,69.47
2019-02-25T08:01:43.902Z,67.97
2019-02-25T08:04:22.204Z,67.20
2019-02-25T08:06:55.165Z,67.70
2019-02-25T08:09:38.328Z,64.53
2019-02-25T08:12:15.595Z,67.67
2019-02-25T08:14:58.904Z,66.80
2019-02-25T08:17:42.132Z,70.03
2019-02-25T08:20:13.687Z,69.13
2019-02-25T08:23:03.293Z,64.47
2019-02-25T08:25:52.514Z,66.13
2019-02-25T08:28:38.875Z,64.50
2019-02-25T08:31:12.914Z,65.47
2019-02-25T08:33:49.978Z,64.97
2019-02-25T08:36:37.639Z,65.87
2019-02-25T08:39:16.837Z,65.70
2019-02-25T08:41:50.559Z,64.27
2019-02-25T08:44:38.540Z,57.87
2019-02-25T08:47:28.372Z,59.40
2019-02-25T08:49:58.293Z,62.13
2019-02-25T08:52:28.076Z,62.50
2019-02-25T08:54:59.154Z,67.23
2019-02-25T08:57:28.915Z,65.17
2019-02-25T08:59:58.747Z,66.53
2019-02-25T09:02:28.415Z,69.03
2019-02-25T09:04:58.068Z,69.03
2019-02-25T09:07:29.307Z,64.93
2019-02-25T09:09:59.023Z,65.13
2019-02-25T09:12:28.685Z,66.87
2019-02-25T09:14:58.400Z,71.70
2019-02-25T09:17:28.069Z,70.93
2019-02-25T09:19:57.727Z,71.30
2019-02-25T09:22:27.408Z,72.30
2019-02-25T09:24:58.107Z,72.60
2019-02-25T09:27:27.818Z,67.23
2019-02-25T09:29:59.260Z,67.27
2019-02-25T09:32:28.980Z,68.57
2019-02-25T09:34:58.842Z,70.53
2019-02-25T09:37:28.505Z,68.03
2019-02-25T09:39:58.171Z,64.20
2019-02-25T09:42:27.823Z,71.00
2019-02-25T09:44:58.772Z,67.10
2019-02-25T09:47:28.447Z,68.63
2019-02-25T09:49:58.114Z,67.10
2019-02-25T09:52:27.789Z,65.70
2019-02-25T09:55:00.262Z,66.10
2019-02-25T09:57:29.877Z,64.37
2019-02-25T09:59:59.585Z,65.53
2019-02-25T10:02:29.096Z,67.30
2019-02-25T10:04:58.769Z,62.47
2019-02-25T10:07:28.450Z,59.33
2019-02-25T10:09:58.122Z,66.37
2019-02-25T10:12:27.818Z,64.50
2019-02-25T10:14:57.586Z,65.23
2019-02-25T10:17:33.277Z,69.50
2019-02-25T10:20:02.957Z,65.20
2019-02-25T10:22:32.873Z,64.17
2019-02-25T10:25:02.676Z,67.37
2019-02-25T10:27:32.368Z,67.23
2019-02-25T10:30:04.066Z,64.47
2019-02-25T10:32:52.714Z,64.73
2019-02-25T10:35:36.545Z,66.40
2019-02-25T10:38:06.308Z,66.57
2019-02-25T10:40:35.987Z,66.50
2019-02-25T10:43:05.751Z,65.77
2019-02-25T10:45:38.906Z,68.53
2019-02-25T10:48:08.349Z,64.60
2019-02-25T10:50:40.933Z,67.93
2019-02-25T10:53:12.902Z,67.23
2019-02-25T10:55:50.796Z,63.43
2019-02-25T10:58:20.579Z,66.47
2019-02-25T11:00:50.240Z,66.80
2019-02-25T11:03:21.767Z,67.87
2019-02-25T11:05:53.860Z,67.50
2019-02-25T11:08:23.644Z,64.77
2019-02-25T11:11:04.596Z,65.03
2019-02-25T11:13:36.725Z,62.53
2019-02-25T11:16:06.880Z,66.47
2019-02-25T11:18:40.527Z,63.43
2019-02-25T11:21:13.260Z,61.87
2019-02-25T11:23:45.182Z,62.20
2019-02-25T11:26:15.595Z,63.97
2019-02-25T11:28:45.289Z,64.57
2019-02-25T11:31:17.152Z,64.20
2019-02-25T11:33:46.339Z,65.67
2019-02-25T11:36:17.745Z,63.00
2019-02-25T11:38:47.648Z,64.07
2019-02-25T11:41:17.348Z,63.00
2019-02-25T11:43:49.905Z,63.57
2019-02-25T11:46:18.413Z,64.67
2019-02-25T11:48:49.255Z,63.53
2019-02-25T11:51:18.948Z,63.13
2019-02-25T11:53:48.608Z,64.47
2019-02-25T11:56:18.311Z,62.63
2019-02-25T11:58:47.981Z,62.30
2019-02-25T12:01:18.052Z,63.00
2019-02-25T12:03:47.718Z,61.93
2019-02-25T12:06:17.388Z,62.33
2019-02-25T12:08:47.125Z,65.33
2019-02-25T12:11:16.888Z,66.30
2019-02-25T12:13:46.556Z,66.23
2019-02-25T12:16:16.214Z,64.53
2019-02-25T12:18:46.007Z,64.03
2019-02-25T12:21:18.279Z,67.00
2019-02-25T12:23:47.956Z,65.20
2019-02-25T12:26:19.135Z,66.93
2019-02-25T12:28:48.885Z,65.63
2019-02-25T12:31:18.660Z,66.23
2019-02-25T12:33:48.341Z,66.43
2019-02-25T12:36:18.009Z,70.90
2019-02-25T12:38:49.133Z,67.40
2019-02-25T12:41:18.838Z,66.60
2019-02-25T12:43:48.809Z,68.07
2019-02-25T12:46:18.499Z,69.80
2019-02-25T12:48:49.698Z,67.03
2019-02-25T12:51:19.325Z,72.07
2019-02-25T12:53:49.765Z,66.17
2019-02-25T12:56:19.940Z,65.63
2019-02-25T12:58:49.639Z,63.90
2019-02-25T13:01:19.352Z,66.07
2019-02-25T13:03:49.047Z,66.43
2019-02-25T13:09:12.784Z,67.30
2019-02-25T13:11:42.459Z,66.43
2019-02-25T13:14:12.120Z,68.90
2019-02-25T13:16:43.854Z,70.00
2019-02-25T13:19:13.509Z,66.93
2019-02-25T13:21:43.196Z,67.40
2019-02-25T13:24:12.985Z,66.97
2019-02-25T13:26:42.724Z,67.67
2019-02-25T13:29:12.396Z,65.60
2019-02-25T13:31:42.156Z,67.50
2019-02-25T13:34:11.842Z,67.33
2019-02-25T13:36:41.516Z,68.30
2019-02-25T13:39:12.029Z,70.23
2019-02-25T13:41:42.188Z,71.73
2019-02-25T13:44:11.926Z,67.20
2019-02-25T13:46:41.623Z,69.00
2019-02-25T13:49:11.419Z,66.30
2019-02-25T13:51:41.166Z,68.03
2019-02-25T13:54:10.865Z,64.53
2019-02-25T13:56:40.565Z,63.93
2019-02-25T13:59:10.598Z,63.73
2019-02-25T14:01:40.375Z,65.00
2019-02-25T14:04:10.152Z,64.30
2019-02-25T14:06:39.832Z,64.70
2019-02-25T14:09:10.685Z,66.07
2019-02-25T14:11:41.841Z,69.73
2019-02-25T14:14:11.878Z,64.87
2019-02-25T14:16:41.635Z,65.97
2019-02-25T14:19:11.315Z,67.17
2019-02-25T14:21:40.983Z,63.37
2019-02-25T14:24:10.875Z,63.23
2019-02-25T14:26:40.640Z,65.07
2019-02-25T14:29:10.614Z,65.67
2019-02-25T14:31:41.018Z,62.60
2019-02-25T14:34:10.686Z,66.50
2019-02-25T14:36:41.708Z,67.23
2019-02-25T14:39:27.760Z,64.80
2019-02-25T14:41:58.894Z,66.90
2019-02-25T14:44:29.823Z,67.10
2019-02-25T14:46:58.774Z,63.80
2019-02-25T14:49:30.155Z,66.27
2019-02-25T14:52:00.995Z,64.40
2019-02-25T14:54:32.285Z,66.40
2019-02-25T14:57:02.688Z,65.43
2019-02-25T14:59:32.633Z,65.23
2019-02-25T15:02:04.072Z,67.73
2019-02-25T15:04:35.840Z,70.23
2019-02-25T15:07:06.883Z,65.63
2019-02-25T15:09:37.506Z,66.33
2019-02-25T15:12:09.878Z,68.23
2019-02-25T15:14:39.984Z,74.03
2019-02-25T15:17:10.648Z,67.47
2019-02-25T15:19:42.888Z,66.70
2019-02-25T15:22:12.802Z,66.87
2019-02-25T15:24:44.409Z,69.77
2019-02-25T15:27:14.815Z,71.10
2019-02-25T15:29:46.342Z,71.27
2019-02-25T15:32:16.636Z,74.20
2019-02-25T15:34:46.944Z,75.77
2019-02-25T15:37:17.775Z,73.30
2019-02-25T15:39:48.582Z,74.63
2019-02-25T15:42:23.763Z,78.87
2019-02-25T15:44:53.449Z,79.20
2019-02-25T15:47:24.700Z,78.17
2019-02-25T15:49:55.349Z,77.37
2019-02-25T15:52:27.575Z,79.90
2019-02-25T15:54:57.244Z,80.13
2019-02-25T15:57:28.468Z,78.40
2019-02-25T15:59:58.312Z,82.57
2019-02-25T16:02:28.388Z,81.00
2019-02-25T16:04:58.651Z,81.37
2019-02-25T16:07:31.725Z,81.60
2019-02-25T16:10:05.006Z,83.27
2019-02-25T16:12:36.016Z,82.57
2019-02-25T16:15:12.861Z,82.00
2019-02-25T16:17:46.282Z,80.90
2019-02-25T16:20:22.105Z,83.30
2019-02-25T16:22:51.778Z,80.77
2019-02-25T16:25:25.174Z,81.37
2019-02-25T16:27:55.400Z,80.33
2019-02-25T16:30:26.398Z,83.00
2019-02-25T16:32:56.714Z,82.13
2019-02-25T16:35:43.638Z,80.23
2019-02-25T16:38:14.004Z,88.40
2019-02-25T16:40:43.728Z,83.43
2019-02-25T16:43:13.501Z,84.17
2019-02-25T16:45:45.242Z,82.87
2019-02-25T16:48:14.674Z,85.43
2019-02-25T16:50:46.465Z,82.70
2019-02-25T16:53:17.892Z,88.53
2019-02-25T16:55:49.309Z,86.73
2019-02-25T16:58:19.726Z,84.70
2019-02-25T17:00:49.421Z,88.67
2019-02-25T17:03:19.931Z,84.50
2019-02-25T17:05:50.393Z,90.00
2019-02-25T17:08:20.544Z,83.73
2019-02-25T17:10:51.847Z,85.83
2019-02-25T17:13:21.668Z,84.53
2019-02-25T17:15:51.508Z,86.93
2019-02-25T17:18:21.184Z,89.40
2019-02-25T17:20:50.864Z,87.83
2019-02-25T17:23:22.799Z,85.40
2019-02-25T17:25:51.983Z,86.03
2019-02-25T17:28:22.655Z,83.60
2019-02-25T17:30:53.042Z,86.03
2019-02-25T17:33:24.040Z,85.03
2019-02-25T17:35:54.302Z,85.23
2019-02-25T17:38:24.628Z,83.10
2019-02-25T17:40:59.235Z,84.23
2019-02-25T17:43:29.266Z,81.17
2019-02-25T17:46:00.356Z,79.17
2019-02-25T17:48:31.915Z,78.47
2019-02-25T17:51:04.596Z,75.40
2019-02-25T17:53:34.287Z,79.70
2019-02-25T17:56:03.965Z,77.60
2019-02-25T17:58:33.675Z,78.27
2019-02-25T18:01:05.669Z,78.47
2019-02-25T18:03:35.307Z,73.67
2019-02-25T18:06:07.529Z,78.50
2019-02-25T18:08:39.327Z,79.33
2019-02-25T18:11:09.177Z,76.30
2019-02-25T18:13:38.891Z,72.80
2019-02-25T18:16:12.088Z,74.33
2019-02-25T18:18:43.214Z,73.80
2019-02-25T18:21:13.814Z,72.93
2019-02-25T18:23:43.489Z,77.93
2019-02-25T18:26:14.882Z,76.33
2019-02-25T18:28:46.661Z,76.47
2019-02-25T18:31:17.565Z,74.07
2019-02-25T18:33:48.589Z,75.90
2019-02-25T18:36:18.645Z,74.20
2019-02-25T18:38:50.493Z,74.00
2019-02-25T18:41:21.501Z,75.93
2019-02-25T18:43:53.493Z,76.17
2019-02-25T18:46:25.106Z,74.17
2019-02-25T18:48:55.050Z,75.83
2019-02-25T18:51:26.486Z,70.50
2019-02-25T18:53:59.733Z,74.00
2019-02-25T18:56:29.765Z,74.50
2019-02-25T18:59:09.580Z,73.57
2019-02-25T19:01:31.256Z,76.37
2019-02-25T19:04:00.935Z,71.53
2019-02-25T19:06:31.506Z,72.10
2019-02-25T19:09:05.012Z,76.33
2019-02-25T19:11:40.458Z,81.43
2019-02-25T19:14:12.402Z,79.90
2019-02-25T19:16:44.072Z,77.80
2019-02-25T19:19:16.975Z,71.70
2019-02-25T19:21:47.927Z,75.20
2019-02-25T19:24:21.669Z,77.03
2019-02-25T19:26:52.691Z,81.37
2019-02-25T19:29:25.556Z,79.83
2019-02-25T19:32:01.680Z,80.53
2019-02-25T19:34:33.225Z,78.80
2019-02-25T19:37:07.054Z,84.33
2019-02-25T19:39:39.699Z,89.40
2019-02-25T19:42:15.068Z,86.83
2019-02-25T19:44:45.273Z,86.23
2019-02-25T19:47:19.178Z,85.60
2019-02-25T19:49:49.568Z,90.57
2019-02-25T19:52:20.398Z,85.70
2019-02-25T19:54:50.912Z,85.40
2019-02-25T19:57:26.235Z,82.37
2019-02-25T19:59:57.984Z,85.13
2019-02-25T20:02:29.772Z,83.23
2019-02-25T20:04:59.608Z,79.27
2019-02-25T20:07:31.491Z,80.33
2019-02-25T20:10:01.722Z,81.40
2019-02-25T20:12:35.115Z,77.47
2019-02-25T20:15:02.812Z,78.83
2019-02-25T20:17:32.724Z,83.87
2019-02-25T20:20:04.825Z,77.93
2019-02-25T20:22:34.912Z,76.30
2019-02-25T20:25:10.811Z,81.53
2019-02-25T20:27:41.166Z,75.43
2019-02-25T20:30:16.727Z,77.27
2019-02-25T20:32:46.428Z,78.63
2019-02-25T20:35:22.163Z,79.73
2019-02-25T20:37:55.269Z,76.03
2019-02-25T20:40:26.648Z,77.47
2019-02-25T20:42:57.780Z,77.47
2019-02-25T20:45:35.644Z,75.80
2019-02-25T20:48:07.714Z,71.83
2019-02-25T20:50:40.327Z,77.67
2019-02-25T20:53:11.085Z,82.85
2019-02-25T20:55:40.960Z,76.77
2019-02-25T20:58:11.532Z,74.07
2019-02-25T21:00:43.999Z,84.60
2019-02-25T21:03:15.997Z,80.63
2019-02-25T21:05:45.053Z,78.20
2019-02-25T21:08:16.919Z,81.00
2019-02-25T21:10:46.999Z,87.80
2019-02-25T21:13:16.647Z,80.63
2019-02-25T21:15:46.332Z,77.27
2019-02-25T21:18:17.468Z,76.90
2019-02-25T21:20:47.725Z,81.97
2019-02-25T21:23:18.564Z,83.50
2019-02-25T21:25:48.224Z,74.33
2019-02-25T21:28:17.920Z,77.63
2019-02-25T21:30:48.854Z,76.13
2019-02-25T21:33:19.908Z,73.33
2019-02-25T21:35:53.844Z,80.13
2019-02-25T21:38:26.691Z,81.20
2019-02-25T21:40:56.037Z,77.70
2019-02-25T21:43:29.085Z,71.43
2019-02-25T21:46:01.469Z,72.83
2019-02-25T21:48:32.288Z,72.83
2019-02-25T21:51:02.948Z,76.93
2019-02-25T21:53:33.414Z,70.90
2019-02-25T21:56:04.903Z,68.87
2019-02-25T21:58:34.531Z,69.73
2019-02-25T22:01:06.743Z,66.10
2019-02-25T22:03:41.287Z,70.53
2019-02-25T22:06:09.250Z,68.60
2019-02-25T22:08:38.911Z,66.07
2019-02-25T22:11:14.787Z,68.80
2019-02-25T22:13:40.015Z,66.33
2019-02-25T22:16:09.763Z,72.70
2019-02-25T22:18:40.921Z,64.03
2019-02-25T22:21:13.676Z,66.83
2019-02-25T22:23:42.431Z,65.50
2019-02-25T22:26:13.693Z,64.53
2019-02-25T22:28:43.392Z,65.70
2019-02-25T22:31:13.882Z,65.23
2019-02-25T22:33:44.458Z,65.50
2019-02-25T22:36:15.504Z,64.63
2019-02-25T22:38:45.397Z,63.53
2019-02-25T22:41:18.343Z,64.57
2019-02-25T22:43:48.323Z,64.57
2019-02-25T22:46:18.179Z,64.37
2019-02-25T22:48:50.832Z,64.40
2019-02-25T22:51:22.111Z,64.43
2019-02-25T22:53:52.157Z,64.73
2019-02-25T22:56:23.715Z,67.13
2019-02-25T22:58:54.483Z,65.17
2019-02-25T23:01:26.373Z,63.37
2019-02-25T23:03:57.811Z,64.27
2019-02-25T23:06:29.267Z,63.07
2019-02-25T23:08:58.930Z,67.40
2019-02-25T23:11:30.257Z,66.07
2019-02-25T23:14:03.176Z,68.00
2019-02-25T23:16:37.236Z,62.83
2019-02-25T23:19:11.347Z,65.97
2019-02-25T23:21:41.028Z,68.43
2019-02-25T23:24:10.712Z,65.37
2019-02-25T23:26:40.413Z,66.07
2019-02-25T23:29:11.563Z,65.20
2019-02-25T23:31:43.450Z,66.67
2019-02-25T23:34:15.326Z,62.60
2019-02-25T23:36:47.035Z,69.17
2019-02-25T23:39:17.862Z,64.93
2019-02-25T23:41:48.716Z,66.53
2019-02-25T23:44:20.296Z,65.03
2019-02-25T23:46:55.358Z,63.27
2019-02-25T23:49:27.208Z,65.10
2019-02-25T23:51:53.046Z,63.77
2019-02-25T23:54:23.237Z,67.53
2019-02-25T23:56:55.122Z,65.90
2019-02-25T23:59:26.582Z,67.47
